createdAt,value
2019-01-23T00:00:30.437Z,81.00
2019-01-23T00:04:29.625Z,81.60
2019-01-23T00:08:28.799Z,82.70
2019-01-23T00:12:27.931Z,82.40
2019-01-23T00:16:27.061Z,82.60
2019-01-23T00:20:26.200Z,82.50
2019-01-23T00:24:25.354Z,82.60
2019-01-23T00:28:25.453Z,82.90
2019-01-23T00:32:24.654Z,83.00
2019-01-23T00:36:23.781Z,82.80
2019-01-23T00:40:22.979Z,83.00
2019-01-23T00:44:22.118Z,82.80
2019-01-23T00:48:21.709Z,82.10
2019-01-23T00:52:22.062Z,81.80
2019-01-23T00:56:21.557Z,81.10
2019-01-23T01:00:26.080Z,82.00
2019-01-23T01:04:25.208Z,81.50
2019-01-23T01:08:24.347Z,81.40
2019-01-23T01:12:23.515Z,81.80
2019-01-23T01:16:22.633Z,82.00
2019-01-23T01:20:21.885Z,82.60
2019-01-23T01:24:21.767Z,81.50
2019-01-23T01:28:21.733Z,81.20
2019-01-23T01:32:21.844Z,82.40
2019-01-23T01:36:21.856Z,82.00
2019-01-23T01:40:21.674Z,81.00
2019-01-23T01:44:21.742Z,82.00
2019-01-23T01:48:21.777Z,81.70
2019-01-23T01:52:21.836Z,82.00
2019-01-23T01:56:21.888Z,82.00
2019-01-23T02:00:23.223Z,82.90
2019-01-23T02:04:22.351Z,83.10
2019-01-23T02:08:21.847Z,81.80
2019-01-23T02:12:21.910Z,81.90
2019-01-23T02:16:21.844Z,82.20
2019-01-23T02:20:23.029Z,83.60
2019-01-23T02:24:22.152Z,82.90
2019-01-23T02:28:21.821Z,83.20
2019-01-23T02:32:21.878Z,82.60
2019-01-23T02:41:49.241Z,83.30
2019-01-23T02:45:48.363Z,83.50
2019-01-23T02:49:47.491Z,83.50
2019-01-23T02:53:46.611Z,83.90
2019-01-23T02:57:45.747Z,83.20
2019-01-23T03:01:44.893Z,84.00
2019-01-23T03:05:44.079Z,83.50
2019-01-23T03:09:43.188Z,83.00
2019-01-23T03:13:42.322Z,83.20
2019-01-23T03:17:41.447Z,82.70
2019-01-23T03:21:40.590Z,84.00
2019-01-23T03:25:39.713Z,84.40
2019-01-23T03:29:38.826Z,84.70
2019-01-23T03:33:37.957Z,84.70
2019-01-23T03:37:37.156Z,85.10
2019-01-23T03:41:36.281Z,85.30
2019-01-23T03:45:35.403Z,84.70
2019-01-23T03:49:34.541Z,84.40
2019-01-23T03:53:33.677Z,85.10
2019-01-23T03:57:32.817Z,85.40
2019-01-23T04:01:31.976Z,84.80
2019-01-23T04:05:31.267Z,84.40
2019-01-23T04:09:30.508Z,84.70
2019-01-23T04:13:29.643Z,85.80
2019-01-23T04:17:28.820Z,86.80
2019-01-23T04:21:28.921Z,87.40
2019-01-23T04:25:28.035Z,87.40
2019-01-23T04:29:27.200Z,87.10
2019-01-23T04:33:26.325Z,86.80
2019-01-23T04:37:25.450Z,87.00
2019-01-23T04:41:24.596Z,87.10
2019-01-23T04:45:23.710Z,86.20
2019-01-23T04:49:23.044Z,87.20
2019-01-23T04:53:23.795Z,87.00
2019-01-23T04:57:22.934Z,86.20
2019-01-23T05:01:22.237Z,86.70
2019-01-23T05:05:22.040Z,86.70
2019-01-23T05:09:22.112Z,87.00
2019-01-23T05:13:21.958Z,87.10
2019-01-23T05:17:22.009Z,87.10
2019-01-23T05:21:21.958Z,86.40
2019-01-23T05:25:22.010Z,86.90
2019-01-23T05:29:22.051Z,86.70
2019-01-23T05:33:22.108Z,86.10
2019-01-23T05:37:22.100Z,87.00
2019-01-23T05:41:22.159Z,86.90
2019-01-23T05:45:22.110Z,87.00
2019-01-23T05:49:22.061Z,86.20
2019-01-23T05:53:22.168Z,86.80
2019-01-23T05:57:22.060Z,86.90
2019-01-23T06:01:22.012Z,87.50
2019-01-23T06:05:22.063Z,86.40
2019-01-23T06:09:22.850Z,85.50
2019-01-23T06:13:22.137Z,85.80
2019-01-23T06:17:22.181Z,86.10
2019-01-23T06:21:22.003Z,85.70
2019-01-23T06:25:22.157Z,85.60
2019-01-23T06:29:22.303Z,85.90
2019-01-23T06:33:22.064Z,85.30
2019-01-23T06:37:22.176Z,86.40
2019-01-23T06:41:22.117Z,86.40
2019-01-23T06:45:22.181Z,86.30
2019-01-23T06:49:22.140Z,85.60
2019-01-23T06:53:22.048Z,85.90
2019-01-23T06:57:22.145Z,85.10
2019-01-23T07:01:22.095Z,85.60
2019-01-23T07:05:22.417Z,85.90
2019-01-23T07:09:22.173Z,85.50
2019-01-23T07:13:22.049Z,85.70
2019-01-23T07:17:22.209Z,85.00
2019-01-23T07:21:22.328Z,84.50
2019-01-23T07:25:22.261Z,84.00
2019-01-23T07:29:22.108Z,84.00
2019-01-23T07:33:22.212Z,84.90
2019-01-23T07:37:22.248Z,83.90
2019-01-23T07:41:22.108Z,83.90
2019-01-23T07:45:23.896Z,84.50
2019-01-23T07:49:23.015Z,85.10
2019-01-23T07:53:22.119Z,85.20
2019-01-23T07:57:22.174Z,85.00
2019-01-23T08:01:22.253Z,84.20
2019-01-23T08:05:24.055Z,83.90
2019-01-23T08:09:23.177Z,83.80
2019-01-23T08:13:22.307Z,84.80
2019-01-23T08:17:22.238Z,85.20
2019-01-23T08:21:22.301Z,85.30
2019-01-23T08:25:22.359Z,84.90
2019-01-23T08:29:22.446Z,85.40
2019-01-23T08:33:22.265Z,84.20
2019-01-23T08:37:22.326Z,83.60
2019-01-23T08:41:22.274Z,83.90
2019-01-23T08:45:22.328Z,83.70
2019-01-23T08:49:22.370Z,84.90
2019-01-23T08:53:22.292Z,84.00
2019-01-23T08:57:22.339Z,84.40
2019-01-23T09:01:22.425Z,84.90
2019-01-23T09:05:22.359Z,85.20
2019-01-23T09:09:22.411Z,85.30
2019-01-23T09:13:22.453Z,84.40
2019-01-23T09:17:22.354Z,84.80
2019-01-23T09:21:22.405Z,84.10
2019-01-23T09:25:24.484Z,84.50
2019-01-23T09:29:23.619Z,84.50
2019-01-23T09:33:35.217Z,84.10
2019-01-23T09:37:37.604Z,84.80
2019-01-23T09:41:59.317Z,84.20
2019-01-23T09:46:01.709Z,84.30
2019-01-23T09:50:13.126Z,84.20
2019-01-23T09:54:13.493Z,82.90
2019-01-23T09:58:12.628Z,83.50
2019-01-23T10:02:11.771Z,83.70
2019-01-23T10:06:10.901Z,84.10
2019-01-23T10:10:16.093Z,83.50
2019-01-23T10:14:15.224Z,83.20
2019-01-23T10:18:14.345Z,83.20
2019-01-23T10:22:13.479Z,81.80
2019-01-23T10:26:12.641Z,82.10
2019-01-23T10:30:14.281Z,82.90
2019-01-23T10:34:13.400Z,81.20
2019-01-23T10:38:12.537Z,81.30
2019-01-23T10:42:11.669Z,80.50
2019-01-23T10:46:11.764Z,80.70
2019-01-23T10:50:13.522Z,81.00
2019-01-23T10:54:12.637Z,80.90
2019-01-23T10:58:11.769Z,80.30
2019-01-23T11:02:10.914Z,80.60
2019-01-23T11:06:10.036Z,81.50
2019-01-23T11:10:15.076Z,80.20
2019-01-23T11:14:14.212Z,80.40
2019-01-23T11:18:13.336Z,79.70
2019-01-23T11:22:12.479Z,80.90
2019-01-23T11:26:11.609Z,79.90
2019-01-23T11:30:19.359Z,79.90
2019-01-23T11:34:18.492Z,78.50
2019-01-23T11:38:17.627Z,77.80
2019-01-23T11:42:16.764Z,77.30
2019-01-23T11:46:15.890Z,77.20
2019-01-23T11:50:21.789Z,77.70
2019-01-23T11:54:17.637Z,78.20
2019-01-23T11:58:16.772Z,77.20
2019-01-23T12:02:15.904Z,77.70
2019-01-23T12:06:15.040Z,77.30
2019-01-23T12:10:19.443Z,77.40
2019-01-23T12:14:18.598Z,76.80
2019-01-23T12:18:17.793Z,76.90
2019-01-23T12:22:16.929Z,77.40
2019-01-23T12:26:17.125Z,77.10
2019-01-23T12:30:19.187Z,77.10
2019-01-23T12:34:18.307Z,76.50
2019-01-23T12:38:17.528Z,75.50
2019-01-23T12:42:16.654Z,75.80
2019-01-23T12:46:15.770Z,76.60
2019-01-23T12:50:17.540Z,75.60
2019-01-23T12:54:16.669Z,74.90
2019-01-23T12:58:15.787Z,74.80
2019-01-23T13:02:14.916Z,75.20
2019-01-23T13:06:14.033Z,75.10
2019-01-23T13:10:15.697Z,75.00
2019-01-23T13:14:14.828Z,75.50
2019-01-23T13:18:13.948Z,75.10
2019-01-23T13:22:13.060Z,76.70
2019-01-23T13:26:12.221Z,76.00
2019-01-23T13:30:13.879Z,75.10
2019-01-23T13:34:13.061Z,75.80
2019-01-23T13:38:13.021Z,75.50
2019-01-23T13:42:12.149Z,75.70
2019-01-23T13:46:11.327Z,75.80
2019-01-23T13:50:12.310Z,77.00
2019-01-23T13:54:11.473Z,77.00
2019-01-23T13:58:10.623Z,77.60
2019-01-23T14:02:09.893Z,77.00
2019-01-23T14:06:09.015Z,77.00
2019-01-23T14:10:16.170Z,78.60
2019-01-23T14:14:15.293Z,80.00
2019-01-23T14:18:14.415Z,79.00
2019-01-23T14:22:13.618Z,81.20
2019-01-23T14:26:12.734Z,79.30
2019-01-23T14:30:24.149Z,78.80
2019-01-23T14:34:23.289Z,80.40
2019-01-23T14:38:22.762Z,80.10
2019-01-23T14:42:22.684Z,78.00
2019-01-23T14:46:22.726Z,78.30
2019-01-23T14:50:22.787Z,79.10
2019-01-23T14:54:22.837Z,79.40
2019-01-23T14:58:23.232Z,79.00
2019-01-23T15:02:22.719Z,78.20
2019-01-23T15:06:22.772Z,79.50
2019-01-23T15:10:25.346Z,80.40
2019-01-23T15:14:24.474Z,79.80
2019-01-23T15:18:23.590Z,79.90
2019-01-23T15:22:22.884Z,80.70
2019-01-23T15:26:22.794Z,81.80
2019-01-23T15:30:23.691Z,83.50
2019-01-23T15:34:22.832Z,83.80
2019-01-23T15:38:22.773Z,84.20
2019-01-23T15:42:22.819Z,85.10
2019-01-23T15:46:22.875Z,85.50
2019-01-23T15:50:24.547Z,85.40
2019-01-23T15:54:23.685Z,85.80
2019-01-23T15:58:22.837Z,86.40
2019-01-23T16:02:24.439Z,86.30
2019-01-23T16:06:23.699Z,86.10
2019-01-23T16:10:25.364Z,85.70
2019-01-23T16:14:24.571Z,86.20
2019-01-23T16:18:23.711Z,87.40
2019-01-23T16:22:22.861Z,87.30
2019-01-23T16:26:22.741Z,86.20
2019-01-23T16:30:28.672Z,86.40
2019-01-23T16:34:27.820Z,87.80
2019-01-23T16:38:26.931Z,88.70
2019-01-23T16:42:26.106Z,88.20
2019-01-23T16:46:25.231Z,88.20
2019-01-23T16:50:26.526Z,88.50
2019-01-23T16:54:25.662Z,88.20
2019-01-23T16:58:24.782Z,87.90
2019-01-23T17:02:23.879Z,87.10
2019-01-23T17:06:23.990Z,87.40
2019-01-23T17:10:24.823Z,87.30
2019-01-23T17:14:23.950Z,87.70
2019-01-23T17:18:24.038Z,87.50
2019-01-23T17:22:23.216Z,87.10
2019-01-23T17:26:22.916Z,87.10
2019-01-23T17:30:23.397Z,87.60
2019-01-23T17:34:22.826Z,87.20
2019-01-23T17:38:22.865Z,87.40
2019-01-23T17:42:22.942Z,87.90
2019-01-23T17:46:23.021Z,87.50
2019-01-23T17:50:23.818Z,87.20
2019-01-23T17:54:22.958Z,87.80
2019-01-23T17:58:23.117Z,87.50
2019-01-23T18:02:22.866Z,86.80
2019-01-23T18:06:22.966Z,87.50
2019-01-23T18:10:23.034Z,87.10
2019-01-23T18:14:22.926Z,87.70
2019-01-23T18:18:22.875Z,88.20
2019-01-23T18:22:22.920Z,87.80
2019-01-23T18:26:22.972Z,87.70
2019-01-23T18:30:34.690Z,87.40
2019-01-23T18:34:39.853Z,87.30
2019-01-23T18:38:42.225Z,87.20
2019-01-23T18:42:53.594Z,87.80
2019-01-23T18:46:55.973Z,87.10
2019-01-23T18:51:07.355Z,86.80
2019-01-23T18:55:09.693Z,86.70
2019-01-23T18:59:08.805Z,86.60
2019-01-23T19:03:08.018Z,88.20
2019-01-23T19:07:07.224Z,87.70
2019-01-23T19:11:07.360Z,87.70
2019-01-23T19:15:09.838Z,87.40
2019-01-23T19:19:08.958Z,88.20
2019-01-23T19:23:08.075Z,87.10
2019-01-23T19:27:07.208Z,87.20
2019-01-23T19:31:06.534Z,86.70
2019-01-23T19:35:06.216Z,87.40
2019-01-23T19:39:08.373Z,86.80
2019-01-23T19:43:08.656Z,87.20
2019-01-23T19:47:09.112Z,86.50
2019-01-23T19:51:08.306Z,87.40
2019-01-23T19:55:13.213Z,86.40
2019-01-23T19:59:12.382Z,86.90
2019-01-23T20:03:11.497Z,87.60
2019-01-23T20:07:10.628Z,87.00
2019-01-23T20:11:09.755Z,87.20
2019-01-23T20:15:12.231Z,88.10
2019-01-23T20:19:11.361Z,88.10
2019-01-23T20:23:10.518Z,87.70
2019-01-23T20:27:09.636Z,87.40
2019-01-23T20:31:08.801Z,86.80
2019-01-23T20:35:08.740Z,87.40
2019-01-23T20:39:09.203Z,87.40
2019-01-23T20:43:08.341Z,86.80
2019-01-23T20:47:07.608Z,87.00
2019-01-23T20:51:06.744Z,85.90
2019-01-23T20:55:06.062Z,85.40
2019-01-23T20:59:06.143Z,86.00
2019-01-23T21:03:05.367Z,86.10
2019-01-23T21:07:04.501Z,86.20
2019-01-23T21:11:03.721Z,87.00
2019-01-23T21:15:02.881Z,86.30
2019-01-23T21:19:02.088Z,86.10
2019-01-23T21:23:01.298Z,85.90
2019-01-23T21:27:00.520Z,85.30
2019-01-23T21:30:59.641Z,84.60
2019-01-23T21:34:58.758Z,84.70
2019-01-23T21:38:58.863Z,84.80
2019-01-23T21:42:57.995Z,85.00
2019-01-23T21:46:57.189Z,85.20
2019-01-23T21:50:56.302Z,85.20
2019-01-23T21:54:55.421Z,85.00
2019-01-23T21:58:54.550Z,85.30
2019-01-23T22:02:54.702Z,85.70
2019-01-23T22:06:53.960Z,86.10
2019-01-23T22:10:53.081Z,85.70
2019-01-23T22:14:52.204Z,85.70
2019-01-23T22:18:51.342Z,85.50
2019-01-23T22:22:50.469Z,85.30
2019-01-23T22:26:49.601Z,85.80
2019-01-23T22:30:48.712Z,86.10
2019-01-23T22:34:47.837Z,85.90
2019-01-23T22:38:46.956Z,85.80
2019-01-23T22:42:46.095Z,85.70
2019-01-23T22:46:45.221Z,85.00
2019-01-23T22:50:44.352Z,85.20
2019-01-23T22:54:44.586Z,85.90
2019-01-23T22:58:43.718Z,85.10
2019-01-23T23:02:43.928Z,84.70
2019-01-23T23:06:43.064Z,84.70
2019-01-23T23:10:42.214Z,85.20
2019-01-23T23:14:41.320Z,84.70
2019-01-23T23:18:40.471Z,85.50
2019-01-23T23:49:53.805Z,84.90
2019-01-23T23:53:52.938Z,84.50
2019-01-23T23:57:52.085Z,85.20
